sensor_id;sensor_type;location;lat;lon;timestamp;P1;durP1;ratioP1;P2;durP2;ratioP2
3004;SDS011;1512;51.486;6.610;2023-03-03T00:02:24;33.23;;;16.83;;
3004;SDS011;1512;51.486;6.610;2023-03-03T00:06:32;32.00;;;16.40;;
3004;SDS011;1512;51.486;6.610;2023-03-03T00:10:41;30.50;;;17.03;;
3004;SDS011;1512;51.486;6.610;2023-03-03T00:14:51;28.83;;;15.00;;
3004;SDS011;1512;51.486;6.610;2023-03-03T00:18:59;32.30;;;14.97;;
3004;SDS011;1512;51.486;6.610;2023-03-03T00:27:30;26.67;;;15.50;;
3004;SDS011;1512;51.486;6.610;2023-03-03T00:31:43;40.97;;;15.07;;
3004;SDS011;1512;51.486;6.610;2023-03-03T00:35:51;30.53;;;14.80;;
3004;SDS011;1512;51.486;6.610;2023-03-03T00:44:43;28.97;;;16.00;;
3004;SDS011;1512;51.486;6.610;2023-03-03T00:48:56;27.77;;;15.53;;
3004;SDS011;1512;51.486;6.610;2023-03-03T00:53:05;22.47;;;13.20;;
3004;SDS011;1512;51.486;6.610;2023-03-03T00:57:22;25.73;;;13.47;;
3004;SDS011;1512;51.486;6.610;2023-03-03T01:01:31;24.07;;;14.13;;
3004;SDS011;1512;51.486;6.610;2023-03-03T01:05:40;36.30;;;12.50;;
3004;SDS011;1512;51.486;6.610;2023-03-03T01:09:49;21.60;;;13.27;;
3004;SDS011;1512;51.486;6.610;2023-03-03T01:13:57;25.20;;;12.47;;
3004;SDS011;1512;51.486;6.610;2023-03-03T01:18:06;20.63;;;11.60;;
3004;SDS011;1512;51.486;6.610;2023-03-03T01:22:16;28.20;;;14.17;;
3004;SDS011;1512;51.486;6.610;2023-03-03T01:26:25;33.73;;;13.67;;
3004;SDS011;1512;51.486;6.610;2023-03-03T01:30:34;29.57;;;14.13;;
3004;SDS011;1512;51.486;6.610;2023-03-03T01:34:43;22.33;;;12.60;;
3004;SDS011;1512;51.486;6.610;2023-03-03T01:38:51;23.40;;;12.70;;
3004;SDS011;1512;51.486;6.610;2023-03-03T01:43:00;27.93;;;14.60;;
3004;SDS011;1512;51.486;6.610;2023-03-03T01:47:13;29.50;;;14.30;;
3004;SDS011;1512;51.486;6.610;2023-03-03T01:51:33;21.03;;;11.60;;
3004;SDS011;1512;51.486;6.610;2023-03-03T01:55:44;28.07;;;12.30;;
3004;SDS011;1512;51.486;6.610;2023-03-03T01:59:54;30.20;;;13.03;;
3004;SDS011;1512;51.486;6.610;2023-03-03T02:04:06;36.43;;;15.90;;
3004;SDS011;1512;51.486;6.610;2023-03-03T02:08:17;26.03;;;14.37;;
3004;SDS011;1512;51.486;6.610;2023-03-03T02:12:32;26.80;;;12.53;;
3004;SDS011;1512;51.486;6.610;2023-03-03T02:16:44;23.27;;;13.77;;
3004;SDS011;1512;51.486;6.610;2023-03-03T02:20:56;16.73;;;10.83;;
3004;SDS011;1512;51.486;6.610;2023-03-03T02:25:07;23.07;;;11.37;;
3004;SDS011;1512;51.486;6.610;2023-03-03T02:29:19;22.60;;;11.00;;
3004;SDS011;1512;51.486;6.610;2023-03-03T02:33:27;17.80;;;10.13;;
3004;SDS011;1512;51.486;6.610;2023-03-03T02:37:36;21.90;;;13.67;;
3004;SDS011;1512;51.486;6.610;2023-03-03T02:45:54;36.60;;;15.50;;
3004;SDS011;1512;51.486;6.610;2023-03-03T02:50:03;24.87;;;13.37;;
3004;SDS011;1512;51.486;6.610;2023-03-03T02:54:13;30.17;;;12.73;;
3004;SDS011;1512;51.486;6.610;2023-03-03T02:58:22;23.87;;;10.93;;
3004;SDS011;1512;51.486;6.610;2023-03-03T03:02:31;23.43;;;12.47;;
3004;SDS011;1512;51.486;6.610;2023-03-03T03:06:40;24.63;;;11.27;;
3004;SDS011;1512;51.486;6.610;2023-03-03T03:10:49;16.93;;;10.03;;
3004;SDS011;1512;51.486;6.610;2023-03-03T03:14:58;28.67;;;11.63;;
3004;SDS011;1512;51.486;6.610;2023-03-03T03:19:07;21.67;;;9.90;;
3004;SDS011;1512;51.486;6.610;2023-03-03T03:27:43;20.93;;;9.50;;
3004;SDS011;1512;51.486;6.610;2023-03-03T03:31:52;30.73;;;12.60;;
3004;SDS011;1512;51.486;6.610;2023-03-03T03:36:01;23.43;;;12.87;;
3004;SDS011;1512;51.486;6.610;2023-03-03T03:40:12;28.47;;;14.50;;
3004;SDS011;1512;51.486;6.610;2023-03-03T03:44:20;22.40;;;11.30;;
3004;SDS011;1512;51.486;6.610;2023-03-03T03:48:31;23.00;;;12.27;;
3004;SDS011;1512;51.486;6.610;2023-03-03T03:52:40;27.77;;;11.93;;
3004;SDS011;1512;51.486;6.610;2023-03-03T03:56:49;19.13;;;11.80;;
3004;SDS011;1512;51.486;6.610;2023-03-03T04:01:04;19.90;;;11.07;;
3004;SDS011;1512;51.486;6.610;2023-03-03T04:05:14;27.97;;;14.50;;
3004;SDS011;1512;51.486;6.610;2023-03-03T04:09:22;24.37;;;13.17;;
3004;SDS011;1512;51.486;6.610;2023-03-03T04:13:32;26.03;;;13.10;;
3004;SDS011;1512;51.486;6.610;2023-03-03T04:17:41;29.07;;;15.03;;
3004;SDS011;1512;51.486;6.610;2023-03-03T04:21:50;30.80;;;13.50;;
3004;SDS011;1512;51.486;6.610;2023-03-03T04:25:59;29.23;;;13.13;;
3004;SDS011;1512;51.486;6.610;2023-03-03T04:30:08;28.47;;;12.80;;
3004;SDS011;1512;51.486;6.610;2023-03-03T04:34:37;18.47;;;12.13;;
3004;SDS011;1512;51.486;6.610;2023-03-03T04:38:46;29.23;;;15.00;;
3004;SDS011;1512;51.486;6.610;2023-03-03T04:42:55;28.70;;;14.30;;
3004;SDS011;1512;51.486;6.610;2023-03-03T04:47:03;25.90;;;12.23;;
3004;SDS011;1512;51.486;6.610;2023-03-03T04:51:12;28.63;;;14.37;;
3004;SDS011;1512;51.486;6.610;2023-03-03T04:55:22;35.23;;;13.77;;
3004;SDS011;1512;51.486;6.610;2023-03-03T04:59:31;30.77;;;14.30;;
3004;SDS011;1512;51.486;6.610;2023-03-03T05:03:39;40.67;;;14.13;;
3004;SDS011;1512;51.486;6.610;2023-03-03T05:07:48;28.23;;;15.70;;
3004;SDS011;1512;51.486;6.610;2023-03-03T05:11:57;33.17;;;14.30;;
3004;SDS011;1512;51.486;6.610;2023-03-03T05:16:06;43.43;;;17.20;;
3004;SDS011;1512;51.486;6.610;2023-03-03T05:20:15;30.50;;;14.63;;
3004;SDS011;1512;51.486;6.610;2023-03-03T05:24:24;34.87;;;15.00;;
3004;SDS011;1512;51.486;6.610;2023-03-03T05:28:32;29.27;;;14.63;;
3004;SDS011;1512;51.486;6.610;2023-03-03T05:32:41;26.23;;;13.53;;
3004;SDS011;1512;51.486;6.610;2023-03-03T05:36:50;24.70;;;12.67;;
3004;SDS011;1512;51.486;6.610;2023-03-03T05:40:58;22.43;;;11.83;;
3004;SDS011;1512;51.486;6.610;2023-03-03T05:45:07;25.27;;;12.00;;
3004;SDS011;1512;51.486;6.610;2023-03-03T05:49:17;30.00;;;12.20;;
3004;SDS011;1512;51.486;6.610;2023-03-03T05:53:26;25.60;;;12.97;;
3004;SDS011;1512;51.486;6.610;2023-03-03T05:57:35;27.90;;;15.23;;
3004;SDS011;1512;51.486;6.610;2023-03-03T06:01:44;24.30;;;12.33;;
3004;SDS011;1512;51.486;6.610;2023-03-03T06:05:53;23.27;;;12.47;;
3004;SDS011;1512;51.486;6.610;2023-03-03T06:10:01;35.77;;;13.13;;
3004;SDS011;1512;51.486;6.610;2023-03-03T06:14:10;22.07;;;11.23;;
3004;SDS011;1512;51.486;6.610;2023-03-03T06:18:22;20.70;;;11.20;;
3004;SDS011;1512;51.486;6.610;2023-03-03T06:22:31;31.80;;;12.57;;
3004;SDS011;1512;51.486;6.610;2023-03-03T06:26:39;24.30;;;12.10;;
3004;SDS011;1512;51.486;6.610;2023-03-03T06:30:51;25.67;;;12.30;;
3004;SDS011;1512;51.486;6.610;2023-03-03T06:35:01;19.70;;;11.33;;
3004;SDS011;1512;51.486;6.610;2023-03-03T06:39:10;24.80;;;12.50;;
3004;SDS011;1512;51.486;6.610;2023-03-03T06:52:21;27.63;;;12.23;;
3004;SDS011;1512;51.486;6.610;2023-03-03T06:56:26;31.47;;;10.43;;
3004;SDS011;1512;51.486;6.610;2023-03-03T07:00:35;22.82;;;10.35;;
3004;SDS011;1512;51.486;6.610;2023-03-03T07:04:43;39.47;;;12.47;;
3004;SDS011;1512;51.486;6.610;2023-03-03T07:08:54;25.40;;;11.13;;
3004;SDS011;1512;51.486;6.610;2023-03-03T07:13:19;21.57;;;9.90;;
3004;SDS011;1512;51.486;6.610;2023-03-03T07:17:32;24.83;;;12.30;;
3004;SDS011;1512;51.486;6.610;2023-03-03T07:21:41;21.07;;;11.50;;
3004;SDS011;1512;51.486;6.610;2023-03-03T07:25:50;28.57;;;12.20;;
3004;SDS011;1512;51.486;6.610;2023-03-03T07:34:35;25.00;;;12.60;;
3004;SDS011;1512;51.486;6.610;2023-03-03T07:38:51;19.33;;;10.77;;
3004;SDS011;1512;51.486;6.610;2023-03-03T07:42:53;25.87;;;12.13;;
3004;SDS011;1512;51.486;6.610;2023-03-03T07:47:13;24.93;;;11.63;;
3004;SDS011;1512;51.486;6.610;2023-03-03T07:55:38;25.17;;;10.90;;
3004;SDS011;1512;51.486;6.610;2023-03-03T07:59:51;22.27;;;12.20;;
3004;SDS011;1512;51.486;6.610;2023-03-03T08:04:04;25.70;;;10.43;;
3004;SDS011;1512;51.486;6.610;2023-03-03T08:08:35;17.53;;;10.23;;
3004;SDS011;1512;51.486;6.610;2023-03-03T08:12:43;23.13;;;10.37;;
3004;SDS011;1512;51.486;6.610;2023-03-03T08:16:55;20.53;;;10.80;;
3004;SDS011;1512;51.486;6.610;2023-03-03T08:25:34;25.23;;;9.33;;
3004;SDS011;1512;51.486;6.610;2023-03-03T08:29:43;21.63;;;11.63;;
3004;SDS011;1512;51.486;6.610;2023-03-03T08:33:53;22.40;;;10.80;;
3004;SDS011;1512;51.486;6.610;2023-03-03T08:38:01;20.97;;;11.10;;
3004;SDS011;1512;51.486;6.610;2023-03-03T08:42:11;26.67;;;10.13;;
3004;SDS011;1512;51.486;6.610;2023-03-03T08:46:21;15.00;;;9.90;;
3004;SDS011;1512;51.486;6.610;2023-03-03T08:50:30;25.37;;;10.20;;
3004;SDS011;1512;51.486;6.610;2023-03-03T08:54:39;26.00;;;10.00;;
3004;SDS011;1512;51.486;6.610;2023-03-03T09:03:15;20.67;;;8.63;;
3004;SDS011;1512;51.486;6.610;2023-03-03T09:11:56;24.03;;;11.43;;
3004;SDS011;1512;51.486;6.610;2023-03-03T09:20:41;25.20;;;10.17;;
3004;SDS011;1512;51.486;6.610;2023-03-03T09:24:56;21.70;;;9.20;;
3004;SDS011;1512;51.486;6.610;2023-03-03T09:29:15;24.13;;;10.50;;
3004;SDS011;1512;51.486;6.610;2023-03-03T09:37:51;21.63;;;10.60;;
3004;SDS011;1512;51.486;6.610;2023-03-03T09:46:41;25.93;;;9.50;;
3004;SDS011;1512;51.486;6.610;2023-03-03T09:51:04;19.10;;;8.87;;
3004;SDS011;1512;51.486;6.610;2023-03-03T09:55:35;20.23;;;9.10;;
3004;SDS011;1512;51.486;6.610;2023-03-03T10:17:23;18.83;;;8.87;;
3004;SDS011;1512;51.486;6.610;2023-03-03T10:21:41;21.20;;;10.50;;
3004;SDS011;1512;51.486;6.610;2023-03-03T10:39:05;26.53;;;10.03;;
3004;SDS011;1512;51.486;6.610;2023-03-03T10:48:19;14.23;;;7.93;;
3004;SDS011;1512;51.486;6.610;2023-03-03T10:52:38;15.13;;;7.20;;
3004;SDS011;1512;51.486;6.610;2023-03-03T11:14:37;16.77;;;7.23;;
3004;SDS011;1512;51.486;6.610;2023-03-03T11:32:35;12.13;;;6.90;;
3004;SDS011;1512;51.486;6.610;2023-03-03T11:36:54;14.40;;;7.23;;
3004;SDS011;1512;51.486;6.610;2023-03-03T11:45:44;21.60;;;8.13;;
3004;SDS011;1512;51.486;6.610;2023-03-03T11:54:20;17.67;;;6.90;;
3004;SDS011;1512;51.486;6.610;2023-03-03T12:02:59;14.83;;;7.00;;
3004;SDS011;1512;51.486;6.610;2023-03-03T12:16:34;16.10;;;7.00;;
3004;SDS011;1512;51.486;6.610;2023-03-03T12:21:52;11.87;;;7.57;;
3004;SDS011;1512;51.486;6.610;2023-03-03T12:25:42;19.43;;;9.63;;
3004;SDS011;1512;51.486;6.610;2023-03-03T12:34:40;20.10;;;9.60;;
3004;SDS011;1512;51.486;6.610;2023-03-03T12:38:58;23.20;;;8.47;;
3004;SDS011;1512;51.486;6.610;2023-03-03T12:43:16;18.93;;;7.47;;
3004;SDS011;1512;51.486;6.610;2023-03-03T12:47:37;17.37;;;7.27;;
3004;SDS011;1512;51.486;6.610;2023-03-03T12:56:08;17.60;;;9.90;;
3004;SDS011;1512;51.486;6.610;2023-03-03T13:09:10;20.27;;;10.63;;
3004;SDS011;1512;51.486;6.610;2023-03-03T13:13:36;20.23;;;8.97;;
3004;SDS011;1512;51.486;6.610;2023-03-03T13:22:35;19.20;;;8.80;;
3004;SDS011;1512;51.486;6.610;2023-03-03T13:27:00;11.33;;;7.20;;
3004;SDS011;1512;51.486;6.610;2023-03-03T13:31:08;21.07;;;9.70;;
3004;SDS011;1512;51.486;6.610;2023-03-03T13:39:58;15.60;;;8.70;;
3004;SDS011;1512;51.486;6.610;2023-03-03T13:44:19;13.40;;;8.70;;
3004;SDS011;1512;51.486;6.610;2023-03-03T13:53:09;17.00;;;9.00;;
3004;SDS011;1512;51.486;6.610;2023-03-03T14:06:34;12.13;;;7.13;;
3004;SDS011;1512;51.486;6.610;2023-03-03T14:15:37;20.10;;;8.47;;
3004;SDS011;1512;51.486;6.610;2023-03-03T14:20:00;15.80;;;9.27;;
3004;SDS011;1512;51.486;6.610;2023-03-03T14:24:22;21.33;;;9.47;;
3004;SDS011;1512;51.486;6.610;2023-03-03T14:28:45;11.60;;;7.07;;
3004;SDS011;1512;51.486;6.610;2023-03-03T14:33:02;20.70;;;8.60;;
3004;SDS011;1512;51.486;6.610;2023-03-03T14:50:27;15.77;;;8.57;;
3004;SDS011;1512;51.486;6.610;2023-03-03T14:54:20;15.50;;;9.00;;
3004;SDS011;1512;51.486;6.610;2023-03-03T14:58:39;22.77;;;9.70;;
3004;SDS011;1512;51.486;6.610;2023-03-03T15:07:29;18.60;;;11.07;;
3004;SDS011;1512;51.486;6.610;2023-03-03T15:11:41;16.73;;;8.40;;
3004;SDS011;1512;51.486;6.610;2023-03-03T15:24:32;16.80;;;9.00;;
3004;SDS011;1512;51.486;6.610;2023-03-03T15:33:24;23.07;;;10.20;;
3004;SDS011;1512;51.486;6.610;2023-03-03T15:42:26;14.63;;;9.23;;
3004;SDS011;1512;51.486;6.610;2023-03-03T15:46:45;15.53;;;10.63;;
3004;SDS011;1512;51.486;6.610;2023-03-03T15:51:19;18.63;;;10.40;;
3004;SDS011;1512;51.486;6.610;2023-03-03T15:55:55;15.73;;;8.67;;
3004;SDS011;1512;51.486;6.610;2023-03-03T16:04:33;13.53;;;9.27;;
3004;SDS011;1512;51.486;6.610;2023-03-03T16:08:55;16.83;;;10.10;;
3004;SDS011;1512;51.486;6.610;2023-03-03T16:13:10;17.87;;;9.90;;
3004;SDS011;1512;51.486;6.610;2023-03-03T16:26:09;21.17;;;11.80;;
3004;SDS011;1512;51.486;6.610;2023-03-03T16:38:53;19.73;;;10.33;;
3004;SDS011;1512;51.486;6.610;2023-03-03T16:43:24;13.77;;;10.43;;
3004;SDS011;1512;51.486;6.610;2023-03-03T16:52:11;19.57;;;11.83;;
3004;SDS011;1512;51.486;6.610;2023-03-03T16:56:22;15.20;;;9.20;;
3004;SDS011;1512;51.486;6.610;2023-03-03T17:01:06;23.27;;;10.97;;
3004;SDS011;1512;51.486;6.610;2023-03-03T17:05:00;17.00;;;9.00;;
3004;SDS011;1512;51.486;6.610;2023-03-03T17:13:46;18.13;;;9.60;;
3004;SDS011;1512;51.486;6.610;2023-03-03T17:31:28;21.27;;;10.10;;
3004;SDS011;1512;51.486;6.610;2023-03-03T17:45:17;18.07;;;11.47;;
3004;SDS011;1512;51.486;6.610;2023-03-03T17:49:09;17.50;;;10.57;;
3004;SDS011;1512;51.486;6.610;2023-03-03T17:58:16;18.20;;;10.80;;
3004;SDS011;1512;51.486;6.610;2023-03-03T18:11:54;18.95;;;10.38;;
3004;SDS011;1512;51.486;6.610;2023-03-03T18:25:25;27.00;;;13.43;;
3004;SDS011;1512;51.486;6.610;2023-03-03T18:29:32;23.73;;;13.87;;
3004;SDS011;1512;51.486;6.610;2023-03-03T18:46:59;22.20;;;12.00;;
3004;SDS011;1512;51.486;6.610;2023-03-03T18:51:08;25.03;;;14.20;;
3004;SDS011;1512;51.486;6.610;2023-03-03T19:12:43;13.77;;;8.37;;
3004;SDS011;1512;51.486;6.610;2023-03-03T19:17:41;16.27;;;7.63;;
3004;SDS011;1512;51.486;6.610;2023-03-03T19:21:33;18.50;;;9.10;;
3004;SDS011;1512;51.486;6.610;2023-03-03T19:25:43;15.33;;;7.50;;
3004;SDS011;1512;51.486;6.610;2023-03-03T19:29:55;19.77;;;8.00;;
3004;SDS011;1512;51.486;6.610;2023-03-03T19:47:10;8.30;;;6.60;;
3004;SDS011;1512;51.486;6.610;2023-03-03T20:00:34;12.20;;;7.90;;
3004;SDS011;1512;51.486;6.610;2023-03-03T20:13:55;7.20;;;6.47;;
3004;SDS011;1512;51.486;6.610;2023-03-03T20:23:22;6.13;;;5.03;;
3004;SDS011;1512;51.486;6.610;2023-03-03T20:27:54;6.23;;;5.03;;
3004;SDS011;1512;51.486;6.610;2023-03-03T20:40:52;4.90;;;4.40;;
3004;SDS011;1512;51.486;6.610;2023-03-03T20:45:16;4.87;;;4.30;;
3004;SDS011;1512;51.486;6.610;2023-03-03T20:54:09;4.57;;;4.13;;
3004;SDS011;1512;51.486;6.610;2023-03-03T20:58:37;7.87;;;4.40;;
3004;SDS011;1512;51.486;6.610;2023-03-03T21:07:23;5.70;;;5.10;;
3004;SDS011;1512;51.486;6.610;2023-03-03T21:15:52;6.83;;;5.30;;
3004;SDS011;1512;51.486;6.610;2023-03-03T21:20:22;7.73;;;6.53;;
3004;SDS011;1512;51.486;6.610;2023-03-03T21:24:49;7.90;;;5.00;;
3004;SDS011;1512;51.486;6.610;2023-03-03T21:29:01;4.13;;;3.67;;
3004;SDS011;1512;51.486;6.610;2023-03-03T21:33:10;4.37;;;4.07;;
3004;SDS011;1512;51.486;6.610;2023-03-03T21:37:41;7.40;;;4.43;;
3004;SDS011;1512;51.486;6.610;2023-03-03T21:41:58;5.60;;;3.77;;
3004;SDS011;1512;51.486;6.610;2023-03-03T21:46:11;7.00;;;3.60;;
3004;SDS011;1512;51.486;6.610;2023-03-03T21:50:20;8.10;;;3.73;;
3004;SDS011;1512;51.486;6.610;2023-03-03T21:54:29;4.37;;;3.83;;
3004;SDS011;1512;51.486;6.610;2023-03-03T21:58:41;5.83;;;3.20;;
3004;SDS011;1512;51.486;6.610;2023-03-03T22:02:50;4.13;;;3.30;;
3004;SDS011;1512;51.486;6.610;2023-03-03T22:07:00;6.10;;;3.90;;
3004;SDS011;1512;51.486;6.610;2023-03-03T22:11:09;4.90;;;4.40;;
3004;SDS011;1512;51.486;6.610;2023-03-03T22:15:19;4.43;;;4.00;;
3004;SDS011;1512;51.486;6.610;2023-03-03T22:19:27;4.53;;;3.47;;
3004;SDS011;1512;51.486;6.610;2023-03-03T22:23:37;8.63;;;3.80;;
3004;SDS011;1512;51.486;6.610;2023-03-03T22:27:45;4.10;;;2.87;;
3004;SDS011;1512;51.486;6.610;2023-03-03T22:31:54;13.43;;;4.00;;
3004;SDS011;1512;51.486;6.610;2023-03-03T22:36:03;9.70;;;3.03;;
3004;SDS011;1512;51.486;6.610;2023-03-03T22:40:12;6.83;;;4.10;;
3004;SDS011;1512;51.486;6.610;2023-03-03T22:48:50;5.13;;;3.80;;
3004;SDS011;1512;51.486;6.610;2023-03-03T22:52:59;3.63;;;3.03;;
3004;SDS011;1512;51.486;6.610;2023-03-03T22:57:07;5.20;;;3.60;;
3004;SDS011;1512;51.486;6.610;2023-03-03T23:01:16;10.27;;;4.57;;
3004;SDS011;1512;51.486;6.610;2023-03-03T23:05:24;9.90;;;3.93;;
3004;SDS011;1512;51.486;6.610;2023-03-03T23:09:33;7.47;;;3.77;;
3004;SDS011;1512;51.486;6.610;2023-03-03T23:13:42;6.90;;;4.20;;
3004;SDS011;1512;51.486;6.610;2023-03-03T23:17:50;9.93;;;3.80;;
3004;SDS011;1512;51.486;6.610;2023-03-03T23:21:59;6.43;;;3.27;;
3004;SDS011;1512;51.486;6.610;2023-03-03T23:26:08;4.60;;;3.97;;
3004;SDS011;1512;51.486;6.610;2023-03-03T23:30:17;4.92;;;3.50;;
3004;SDS011;1512;51.486;6.610;2023-03-03T23:34:26;7.20;;;3.83;;
3004;SDS011;1512;51.486;6.610;2023-03-03T23:38:35;6.20;;;3.95;;
3004;SDS011;1512;51.486;6.610;2023-03-03T23:42:44;4.47;;;4.07;;
3004;SDS011;1512;51.486;6.610;2023-03-03T23:46:54;7.13;;;3.57;;
3004;SDS011;1512;51.486;6.610;2023-03-03T23:51:03;8.70;;;4.20;;
3004;SDS011;1512;51.486;6.610;2023-03-03T23:55:11;3.80;;;3.33;;
3004;SDS011;1512;51.486;6.610;2023-03-03T23:59:20;6.17;;;3.77;;
